sensor_id;sensor_type;location;lat;lon;timestamp;temperature;humidity
57552;DHT22;43379;48.160;14.036;2022-11-11T00:02:03;6.90;99.90
57552;DHT22;43379;48.160;14.036;2022-11-11T00:04:28;6.90;99.90
57552;DHT22;43379;48.160;14.036;2022-11-11T00:06:54;6.90;99.90
57552;DHT22;43379;48.160;14.036;2022-11-11T00:09:20;6.90;99.90
57552;DHT22;43379;48.160;14.036;2022-11-11T00:11:45;6.80;99.90
57552;DHT22;43379;48.160;14.036;2022-11-11T00:14:11;6.80;99.90
57552;DHT22;43379;48.160;14.036;2022-11-11T00:16:37;6.80;99.90
57552;DHT22;43379;48.160;14.036;2022-11-11T00:19:21;6.80;99.90
57552;DHT22;43379;48.160;14.036;2022-11-11T00:22:14;6.80;99.90
57552;DHT22;43379;48.160;14.036;2022-11-11T00:25:02;6.80;99.90
57552;DHT22;43379;48.160;14.036;2022-11-11T00:27:31;6.70;99.90
57552;DHT22;43379;48.160;14.036;2022-11-11T00:29:57;6.70;99.90
57552;DHT22;43379;48.160;14.036;2022-11-11T00:32:22;6.70;99.90
57552;DHT22;43379;48.160;14.036;2022-11-11T00:34:53;6.60;99.90
57552;DHT22;43379;48.160;14.036;2022-11-11T00:37:38;6.60;99.90
57552;DHT22;43379;48.160;14.036;2022-11-11T00:40:04;6.50;99.90
57552;DHT22;43379;48.160;14.036;2022-11-11T00:42:30;6.50;99.90
57552;DHT22;43379;48.160;14.036;2022-11-11T00:44:56;6.50;99.90
57552;DHT22;43379;48.160;14.036;2022-11-11T00:47:22;6.50;99.90
57552;DHT22;43379;48.160;14.036;2022-11-11T00:50:14;6.50;99.90
57552;DHT22;43379;48.160;14.036;2022-11-11T00:52:59;6.50;99.90
57552;DHT22;43379;48.160;14.036;2022-11-11T00:55:24;6.50;99.90
57552;DHT22;43379;48.160;14.036;2022-11-11T00:57:50;6.60;99.90
57552;DHT22;43379;48.160;14.036;2022-11-11T01:00:16;6.60;99.90
57552;DHT22;43379;48.160;14.036;2022-11-11T01:02:41;6.60;99.90
57552;DHT22;43379;48.160;14.036;2022-11-11T01:05:07;6.50;99.90
57552;DHT22;43379;48.160;14.036;2022-11-11T01:07:33;6.60;99.90
57552;DHT22;43379;48.160;14.036;2022-11-11T01:09:58;6.60;99.90
57552;DHT22;43379;48.160;14.036;2022-11-11T01:12:24;6.60;99.90
57552;DHT22;43379;48.160;14.036;2022-11-11T01:14:50;6.70;99.90
57552;DHT22;43379;48.160;14.036;2022-11-11T01:17:15;6.70;99.90
57552;DHT22;43379;48.160;14.036;2022-11-11T01:19:41;6.70;99.90
57552;DHT22;43379;48.160;14.036;2022-11-11T01:22:07;6.70;99.90
57552;DHT22;43379;48.160;14.036;2022-11-11T01:24:32;6.70;99.90
57552;DHT22;43379;48.160;14.036;2022-11-11T01:26:58;6.60;99.90
57552;DHT22;43379;48.160;14.036;2022-11-11T01:29:24;6.70;99.90
57552;DHT22;43379;48.160;14.036;2022-11-11T01:31:49;6.70;99.90
57552;DHT22;43379;48.160;14.036;2022-11-11T01:34:15;6.70;99.90
57552;DHT22;43379;48.160;14.036;2022-11-11T01:36:40;6.60;99.90
57552;DHT22;43379;48.160;14.036;2022-11-11T01:39:06;6.60;99.90
57552;DHT22;43379;48.160;14.036;2022-11-11T01:41:33;6.70;99.90
57552;DHT22;43379;48.160;14.036;2022-11-11T01:47:02;6.70;99.90
57552;DHT22;43379;48.160;14.036;2022-11-11T01:49:56;6.70;99.90
57552;DHT22;43379;48.160;14.036;2022-11-11T01:52:38;6.70;99.90
57552;DHT22;43379;48.160;14.036;2022-11-11T01:58:09;6.70;99.90
57552;DHT22;43379;48.160;14.036;2022-11-11T02:00:36;6.70;99.90
57552;DHT22;43379;48.160;14.036;2022-11-11T02:03:07;6.70;99.90
57552;DHT22;43379;48.160;14.036;2022-11-11T02:05:33;6.70;99.90
57552;DHT22;43379;48.160;14.036;2022-11-11T02:08:15;6.70;99.90
57552;DHT22;43379;48.160;14.036;2022-11-11T02:11:09;6.60;99.90
57552;DHT22;43379;48.160;14.036;2022-11-11T02:13:40;6.60;99.90
57552;DHT22;43379;48.160;14.036;2022-11-11T02:16:25;6.60;99.90
57552;DHT22;43379;48.160;14.036;2022-11-11T02:18:51;6.60;99.90
57552;DHT22;43379;48.160;14.036;2022-11-11T02:21:31;6.60;99.90
57552;DHT22;43379;48.160;14.036;2022-11-11T02:24:03;6.60;99.90
57552;DHT22;43379;48.160;14.036;2022-11-11T02:26:33;6.60;99.90
57552;DHT22;43379;48.160;14.036;2022-11-11T02:29:01;6.50;99.90
57552;DHT22;43379;48.160;14.036;2022-11-11T02:31:31;6.50;99.90
57552;DHT22;43379;48.160;14.036;2022-11-11T02:33:57;6.50;99.90
57552;DHT22;43379;48.160;14.036;2022-11-11T02:36:23;6.50;99.90
57552;DHT22;43379;48.160;14.036;2022-11-11T02:38:49;6.50;99.90
57552;DHT22;43379;48.160;14.036;2022-11-11T02:41:16;6.50;99.90
57552;DHT22;43379;48.160;14.036;2022-11-11T02:44:00;6.50;99.90
57552;DHT22;43379;48.160;14.036;2022-11-11T02:46:26;6.60;99.90
57552;DHT22;43379;48.160;14.036;2022-11-11T02:48:51;6.50;99.90
57552;DHT22;43379;48.160;14.036;2022-11-11T02:51:17;6.60;99.90
57552;DHT22;43379;48.160;14.036;2022-11-11T02:53:43;6.60;99.90
57552;DHT22;43379;48.160;14.036;2022-11-11T02:56:08;6.50;99.90
57552;DHT22;43379;48.160;14.036;2022-11-11T02:58:34;6.50;99.90
57552;DHT22;43379;48.160;14.036;2022-11-11T03:00:59;6.50;99.90
57552;DHT22;43379;48.160;14.036;2022-11-11T03:03:25;6.50;99.90
57552;DHT22;43379;48.160;14.036;2022-11-11T03:05:51;6.60;99.90
57552;DHT22;43379;48.160;14.036;2022-11-11T03:08:17;6.60;99.90
57552;DHT22;43379;48.160;14.036;2022-11-11T03:10:43;6.50;99.90
57552;DHT22;43379;48.160;14.036;2022-11-11T03:13:08;6.50;99.90
57552;DHT22;43379;48.160;14.036;2022-11-11T03:15:34;6.60;99.90
57552;DHT22;43379;48.160;14.036;2022-11-11T03:18:00;6.50;99.90
57552;DHT22;43379;48.160;14.036;2022-11-11T03:20:26;6.50;99.90
57552;DHT22;43379;48.160;14.036;2022-11-11T03:23:13;6.50;99.90
57552;DHT22;43379;48.160;14.036;2022-11-11T03:25:41;6.50;99.90
57552;DHT22;43379;48.160;14.036;2022-11-11T03:28:10;6.50;99.90
57552;DHT22;43379;48.160;14.036;2022-11-11T03:30:41;6.40;99.90
57552;DHT22;43379;48.160;14.036;2022-11-11T03:33:07;6.40;99.90
57552;DHT22;43379;48.160;14.036;2022-11-11T03:35:34;6.40;99.90
57552;DHT22;43379;48.160;14.036;2022-11-11T03:38:00;6.40;99.90
57552;DHT22;43379;48.160;14.036;2022-11-11T03:40:52;6.40;99.90
57552;DHT22;43379;48.160;14.036;2022-11-11T03:43:20;6.40;99.90
57552;DHT22;43379;48.160;14.036;2022-11-11T03:45:46;6.50;99.90
57552;DHT22;43379;48.160;14.036;2022-11-11T03:48:12;6.50;99.90
57552;DHT22;43379;48.160;14.036;2022-11-11T03:50:39;6.50;99.90
57552;DHT22;43379;48.160;14.036;2022-11-11T03:53:05;6.50;99.90
57552;DHT22;43379;48.160;14.036;2022-11-11T03:55:30;6.50;99.90
57552;DHT22;43379;48.160;14.036;2022-11-11T03:57:56;6.60;99.90
57552;DHT22;43379;48.160;14.036;2022-11-11T04:00:25;6.50;99.90
57552;DHT22;43379;48.160;14.036;2022-11-11T04:02:51;6.60;99.90
57552;DHT22;43379;48.160;14.036;2022-11-11T04:05:35;6.50;99.90
57552;DHT22;43379;48.160;14.036;2022-11-11T04:08:20;6.50;99.90
57552;DHT22;43379;48.160;14.036;2022-11-11T04:11:26;6.30;99.90
57552;DHT22;43379;48.160;14.036;2022-11-11T04:13:53;6.10;99.90
57552;DHT22;43379;48.160;14.036;2022-11-11T04:16:39;6.10;99.90
57552;DHT22;43379;48.160;14.036;2022-11-11T04:19:05;5.90;99.90
57552;DHT22;43379;48.160;14.036;2022-11-11T04:21:49;6.00;99.90
57552;DHT22;43379;48.160;14.036;2022-11-11T04:24:16;5.90;99.90
57552;DHT22;43379;48.160;14.036;2022-11-11T04:27:03;5.80;99.90
57552;DHT22;43379;48.160;14.036;2022-11-11T04:29:29;5.80;99.90
57552;DHT22;43379;48.160;14.036;2022-11-11T04:32:02;5.80;99.90
57552;DHT22;43379;48.160;14.036;2022-11-11T04:34:55;5.80;99.90
57552;DHT22;43379;48.160;14.036;2022-11-11T04:37:22;5.80;99.90
57552;DHT22;43379;48.160;14.036;2022-11-11T04:39:49;5.80;99.90
57552;DHT22;43379;48.160;14.036;2022-11-11T04:42:34;5.70;99.90
57552;DHT22;43379;48.160;14.036;2022-11-11T04:45:00;5.70;99.90
57552;DHT22;43379;48.160;14.036;2022-11-11T04:48:06;5.80;99.90
57552;DHT22;43379;48.160;14.036;2022-11-11T04:50:34;5.80;99.90
57552;DHT22;43379;48.160;14.036;2022-11-11T04:53:00;5.80;99.90
57552;DHT22;43379;48.160;14.036;2022-11-11T04:55:27;5.80;99.90
57552;DHT22;43379;48.160;14.036;2022-11-11T04:58:11;5.80;99.90
57552;DHT22;43379;48.160;14.036;2022-11-11T05:00:37;5.80;99.90
57552;DHT22;43379;48.160;14.036;2022-11-11T05:03:04;5.80;99.90
57552;DHT22;43379;48.160;14.036;2022-11-11T05:05:50;5.90;99.90
57552;DHT22;43379;48.160;14.036;2022-11-11T05:08:41;5.90;99.90
57552;DHT22;43379;48.160;14.036;2022-11-11T05:11:25;5.80;99.90
57552;DHT22;43379;48.160;14.036;2022-11-11T05:13:53;5.80;99.90
57552;DHT22;43379;48.160;14.036;2022-11-11T05:16:40;5.80;99.90
57552;DHT22;43379;48.160;14.036;2022-11-11T05:19:26;5.80;99.90
57552;DHT22;43379;48.160;14.036;2022-11-11T05:22:16;5.80;99.90
57552;DHT22;43379;48.160;14.036;2022-11-11T05:24:43;5.80;99.90
57552;DHT22;43379;48.160;14.036;2022-11-11T05:27:27;5.90;99.90
57552;DHT22;43379;48.160;14.036;2022-11-11T05:29:53;5.80;99.90
57552;DHT22;43379;48.160;14.036;2022-11-11T05:32:20;5.90;99.90
57552;DHT22;43379;48.160;14.036;2022-11-11T05:34:46;5.90;99.90
57552;DHT22;43379;48.160;14.036;2022-11-11T05:37:12;5.90;99.90
57552;DHT22;43379;48.160;14.036;2022-11-11T05:39:38;6.00;99.90
57552;DHT22;43379;48.160;14.036;2022-11-11T05:42:04;6.00;99.90
57552;DHT22;43379;48.160;14.036;2022-11-11T05:44:30;6.10;99.90
57552;DHT22;43379;48.160;14.036;2022-11-11T05:46:55;6.10;99.90
57552;DHT22;43379;48.160;14.036;2022-11-11T05:49:21;6.10;99.90
57552;DHT22;43379;48.160;14.036;2022-11-11T05:51:48;6.10;99.90
57552;DHT22;43379;48.160;14.036;2022-11-11T05:54:14;6.20;99.90
57552;DHT22;43379;48.160;14.036;2022-11-11T05:56:40;6.20;99.90
57552;DHT22;43379;48.160;14.036;2022-11-11T05:59:06;6.20;99.90
57552;DHT22;43379;48.160;14.036;2022-11-11T06:01:32;6.20;99.90
57552;DHT22;43379;48.160;14.036;2022-11-11T06:03:58;6.10;99.90
57552;DHT22;43379;48.160;14.036;2022-11-11T06:06:24;6.10;99.90
57552;DHT22;43379;48.160;14.036;2022-11-11T06:08:50;6.20;99.90
57552;DHT22;43379;48.160;14.036;2022-11-11T06:11:15;6.20;99.90
57552;DHT22;43379;48.160;14.036;2022-11-11T06:13:41;6.10;99.90
57552;DHT22;43379;48.160;14.036;2022-11-11T06:16:07;6.20;99.90
57552;DHT22;43379;48.160;14.036;2022-11-11T06:18:33;6.30;99.90
57552;DHT22;43379;48.160;14.036;2022-11-11T06:20:59;6.30;99.90
57552;DHT22;43379;48.160;14.036;2022-11-11T06:23:26;6.30;99.90
57552;DHT22;43379;48.160;14.036;2022-11-11T06:25:53;6.30;99.90
57552;DHT22;43379;48.160;14.036;2022-11-11T06:28:44;6.30;99.90
57552;DHT22;43379;48.160;14.036;2022-11-11T06:31:13;6.30;99.90
57552;DHT22;43379;48.160;14.036;2022-11-11T06:33:39;6.30;99.90
57552;DHT22;43379;48.160;14.036;2022-11-11T06:36:05;6.30;99.90
57552;DHT22;43379;48.160;14.036;2022-11-11T06:38:31;6.30;99.90
57552;DHT22;43379;48.160;14.036;2022-11-11T06:40:57;6.40;99.90
57552;DHT22;43379;48.160;14.036;2022-11-11T06:43:23;6.40;99.90
57552;DHT22;43379;48.160;14.036;2022-11-11T06:45:50;6.50;99.90
57552;DHT22;43379;48.160;14.036;2022-11-11T06:48:16;6.50;99.90
57552;DHT22;43379;48.160;14.036;2022-11-11T06:50:41;6.40;99.90
57552;DHT22;43379;48.160;14.036;2022-11-11T06:53:09;6.30;99.90
57552;DHT22;43379;48.160;14.036;2022-11-11T06:55:35;6.30;99.90
57552;DHT22;43379;48.160;14.036;2022-11-11T06:58:15;6.30;99.90
57552;DHT22;43379;48.160;14.036;2022-11-11T07:00:42;6.20;99.90
57552;DHT22;43379;48.160;14.036;2022-11-11T07:03:11;6.10;99.90
57552;DHT22;43379;48.160;14.036;2022-11-11T07:05:37;6.20;99.90
57552;DHT22;43379;48.160;14.036;2022-11-11T07:08:04;6.20;99.90
57552;DHT22;43379;48.160;14.036;2022-11-11T07:10:31;6.10;99.90
57552;DHT22;43379;48.160;14.036;2022-11-11T07:12:57;6.20;99.90
57552;DHT22;43379;48.160;14.036;2022-11-11T07:15:22;6.20;99.90
57552;DHT22;43379;48.160;14.036;2022-11-11T07:17:48;6.20;99.90
57552;DHT22;43379;48.160;14.036;2022-11-11T07:20:14;6.20;99.90
57552;DHT22;43379;48.160;14.036;2022-11-11T07:22:39;6.20;99.90
57552;DHT22;43379;48.160;14.036;2022-11-11T07:25:05;6.30;99.90
57552;DHT22;43379;48.160;14.036;2022-11-11T07:27:35;6.30;99.90
57552;DHT22;43379;48.160;14.036;2022-11-11T07:30:00;6.30;99.90
57552;DHT22;43379;48.160;14.036;2022-11-11T07:32:26;6.30;99.90
57552;DHT22;43379;48.160;14.036;2022-11-11T07:34:52;6.30;99.90
57552;DHT22;43379;48.160;14.036;2022-11-11T07:37:17;6.30;99.90
57552;DHT22;43379;48.160;14.036;2022-11-11T07:39:44;6.30;99.90
57552;DHT22;43379;48.160;14.036;2022-11-11T07:42:09;6.40;99.90
57552;DHT22;43379;48.160;14.036;2022-11-11T07:44:35;6.40;99.90
57552;DHT22;43379;48.160;14.036;2022-11-11T07:47:01;6.30;99.90
57552;DHT22;43379;48.160;14.036;2022-11-11T07:49:26;6.30;99.90
57552;DHT22;43379;48.160;14.036;2022-11-11T07:51:52;6.30;99.90
57552;DHT22;43379;48.160;14.036;2022-11-11T07:54:19;6.50;99.90
57552;DHT22;43379;48.160;14.036;2022-11-11T07:56:44;6.60;99.90
57552;DHT22;43379;48.160;14.036;2022-11-11T07:59:10;6.70;99.90
57552;DHT22;43379;48.160;14.036;2022-11-11T08:01:36;6.70;99.90
57552;DHT22;43379;48.160;14.036;2022-11-11T08:04:01;6.80;99.90
57552;DHT22;43379;48.160;14.036;2022-11-11T08:06:27;6.80;99.90
57552;DHT22;43379;48.160;14.036;2022-11-11T08:08:53;6.80;99.90
57552;DHT22;43379;48.160;14.036;2022-11-11T08:11:19;6.80;99.90
57552;DHT22;43379;48.160;14.036;2022-11-11T08:14:05;6.90;99.90
57552;DHT22;43379;48.160;14.036;2022-11-11T08:16:30;6.90;99.90
57552;DHT22;43379;48.160;14.036;2022-11-11T08:18:56;6.90;99.90
57552;DHT22;43379;48.160;14.036;2022-11-11T08:21:23;6.90;99.90
57552;DHT22;43379;48.160;14.036;2022-11-11T08:23:49;7.00;99.90
57552;DHT22;43379;48.160;14.036;2022-11-11T08:26:16;7.00;99.90
57552;DHT22;43379;48.160;14.036;2022-11-11T08:28:42;7.00;99.90
57552;DHT22;43379;48.160;14.036;2022-11-11T08:31:08;7.00;99.90
57552;DHT22;43379;48.160;14.036;2022-11-11T08:33:35;7.00;99.90
57552;DHT22;43379;48.160;14.036;2022-11-11T08:36:01;7.00;99.90
57552;DHT22;43379;48.160;14.036;2022-11-11T08:38:27;7.10;99.90
57552;DHT22;43379;48.160;14.036;2022-11-11T08:40:53;7.20;99.90
57552;DHT22;43379;48.160;14.036;2022-11-11T08:43:19;7.30;99.90
57552;DHT22;43379;48.160;14.036;2022-11-11T08:45:46;7.20;99.90
57552;DHT22;43379;48.160;14.036;2022-11-11T08:48:12;7.30;99.90
57552;DHT22;43379;48.160;14.036;2022-11-11T08:50:40;7.30;99.90
57552;DHT22;43379;48.160;14.036;2022-11-11T08:53:07;7.30;99.90
57552;DHT22;43379;48.160;14.036;2022-11-11T08:55:34;7.30;99.90
57552;DHT22;43379;48.160;14.036;2022-11-11T08:58:03;7.20;99.90
57552;DHT22;43379;48.160;14.036;2022-11-11T09:00:29;7.20;99.90
57552;DHT22;43379;48.160;14.036;2022-11-11T09:03:03;7.30;99.90
57552;DHT22;43379;48.160;14.036;2022-11-11T09:05:29;7.40;99.90
57552;DHT22;43379;48.160;14.036;2022-11-11T09:07:55;7.40;99.90
57552;DHT22;43379;48.160;14.036;2022-11-11T09:10:21;7.40;99.90
57552;DHT22;43379;48.160;14.036;2022-11-11T09:12:47;7.40;99.90
57552;DHT22;43379;48.160;14.036;2022-11-11T09:15:12;7.50;99.90
57552;DHT22;43379;48.160;14.036;2022-11-11T09:17:38;7.60;99.90
57552;DHT22;43379;48.160;14.036;2022-11-11T09:20:04;7.60;99.90
57552;DHT22;43379;48.160;14.036;2022-11-11T09:22:30;7.60;99.90
57552;DHT22;43379;48.160;14.036;2022-11-11T09:24:56;7.70;99.90
57552;DHT22;43379;48.160;14.036;2022-11-11T09:27:22;7.80;99.90
57552;DHT22;43379;48.160;14.036;2022-11-11T09:29:47;7.80;99.90
57552;DHT22;43379;48.160;14.036;2022-11-11T09:32:13;7.90;99.90
57552;DHT22;43379;48.160;14.036;2022-11-11T09:34:38;7.90;99.90
57552;DHT22;43379;48.160;14.036;2022-11-11T09:37:04;8.00;99.90
57552;DHT22;43379;48.160;14.036;2022-11-11T09:39:30;8.00;99.90
57552;DHT22;43379;48.160;14.036;2022-11-11T09:42:21;7.90;99.90
57552;DHT22;43379;48.160;14.036;2022-11-11T09:50:20;8.00;99.90
57552;DHT22;43379;48.160;14.036;2022-11-11T09:52:48;8.00;99.90
57552;DHT22;43379;48.160;14.036;2022-11-11T09:55:29;8.10;99.90
57552;DHT22;43379;48.160;14.036;2022-11-11T09:58:00;8.20;99.90
57552;DHT22;43379;48.160;14.036;2022-11-11T10:00:31;8.20;99.90
57552;DHT22;43379;48.160;14.036;2022-11-11T10:03:22;8.20;99.90
57552;DHT22;43379;48.160;14.036;2022-11-11T10:05:55;8.20;99.90
57552;DHT22;43379;48.160;14.036;2022-11-11T10:08:26;8.20;99.90
57552;DHT22;43379;48.160;14.036;2022-11-11T10:10:54;8.20;99.90
57552;DHT22;43379;48.160;14.036;2022-11-11T10:13:29;8.20;99.90
57552;DHT22;43379;48.160;14.036;2022-11-11T10:21:18;8.40;99.90
57552;DHT22;43379;48.160;14.036;2022-11-11T10:23:48;8.40;99.90
57552;DHT22;43379;48.160;14.036;2022-11-11T10:26:18;8.30;99.90
57552;DHT22;43379;48.160;14.036;2022-11-11T10:28:46;8.40;99.90
57552;DHT22;43379;48.160;14.036;2022-11-11T10:31:17;8.40;99.90
57552;DHT22;43379;48.160;14.036;2022-11-11T10:34:09;8.40;99.90
57552;DHT22;43379;48.160;14.036;2022-11-11T10:36:49;8.30;99.90
57552;DHT22;43379;48.160;14.036;2022-11-11T10:39:23;8.40;99.90
57552;DHT22;43379;48.160;14.036;2022-11-11T10:41:51;8.30;99.90
57552;DHT22;43379;48.160;14.036;2022-11-11T10:44:19;8.30;99.90
57552;DHT22;43379;48.160;14.036;2022-11-11T10:52:35;8.40;99.90
57552;DHT22;43379;48.160;14.036;2022-11-11T10:55:12;8.50;99.90
57552;DHT22;43379;48.160;14.036;2022-11-11T10:57:45;8.40;99.90
57552;DHT22;43379;48.160;14.036;2022-11-11T11:00:13;8.40;99.90
57552;DHT22;43379;48.160;14.036;2022-11-11T11:02:50;8.40;99.90
57552;DHT22;43379;48.160;14.036;2022-11-11T11:08:14;8.60;99.90
57552;DHT22;43379;48.160;14.036;2022-11-11T11:10:49;8.70;99.90
57552;DHT22;43379;48.160;14.036;2022-11-11T11:13:38;8.80;99.90
57552;DHT22;43379;48.160;14.036;2022-11-11T11:16:24;8.90;99.90
57552;DHT22;43379;48.160;14.036;2022-11-11T11:19:24;9.00;99.90
57552;DHT22;43379;48.160;14.036;2022-11-11T11:21:55;9.00;99.90
57552;DHT22;43379;48.160;14.036;2022-11-11T11:24:23;9.10;99.90
57552;DHT22;43379;48.160;14.036;2022-11-11T11:26:52;9.10;99.90
57552;DHT22;43379;48.160;14.036;2022-11-11T11:31:51;9.00;99.90
57552;DHT22;43379;48.160;14.036;2022-11-11T11:34:17;9.00;99.90
57552;DHT22;43379;48.160;14.036;2022-11-11T11:36:42;8.80;99.90
57552;DHT22;43379;48.160;14.036;2022-11-11T11:39:08;8.90;99.90
57552;DHT22;43379;48.160;14.036;2022-11-11T11:41:41;9.00;99.90
57552;DHT22;43379;48.160;14.036;2022-11-11T11:44:29;9.10;99.90
57552;DHT22;43379;48.160;14.036;2022-11-11T11:55:41;9.00;99.90
57552;DHT22;43379;48.160;14.036;2022-11-11T12:01:04;9.10;99.90
57552;DHT22;43379;48.160;14.036;2022-11-11T12:12:11;9.30;99.90
57552;DHT22;43379;48.160;14.036;2022-11-11T12:18:16;9.30;99.90
57552;DHT22;43379;48.160;14.036;2022-11-11T12:21:08;9.30;99.90
57552;DHT22;43379;48.160;14.036;2022-11-11T12:27:31;9.60;99.90
57552;DHT22;43379;48.160;14.036;2022-11-11T12:29:59;9.50;99.90
57552;DHT22;43379;48.160;14.036;2022-11-11T12:37:37;9.70;99.90
57552;DHT22;43379;48.160;14.036;2022-11-11T12:48:15;10.00;99.90
57552;DHT22;43379;48.160;14.036;2022-11-11T12:51:12;10.00;99.90
57552;DHT22;43379;48.160;14.036;2022-11-11T12:53:52;10.00;99.90
57552;DHT22;43379;48.160;14.036;2022-11-11T13:07:50;9.80;99.90
57552;DHT22;43379;48.160;14.036;2022-11-11T13:10:44;9.70;99.90
57552;DHT22;43379;48.160;14.036;2022-11-11T13:15:44;9.70;99.90
57552;DHT22;43379;48.160;14.036;2022-11-11T13:18:17;9.70;99.90
57552;DHT22;43379;48.160;14.036;2022-11-11T13:21:18;9.70;99.90
57552;DHT22;43379;48.160;14.036;2022-11-11T13:23:45;9.80;99.90
57552;DHT22;43379;48.160;14.036;2022-11-11T13:26:34;9.80;99.90
57552;DHT22;43379;48.160;14.036;2022-11-11T13:32:10;10.00;99.90
57552;DHT22;43379;48.160;14.036;2022-11-11T13:34:36;9.90;99.90
57552;DHT22;43379;48.160;14.036;2022-11-11T13:37:04;9.90;99.90
57552;DHT22;43379;48.160;14.036;2022-11-11T13:39:37;10.00;99.90
57552;DHT22;43379;48.160;14.036;2022-11-11T13:42:04;10.00;99.90
57552;DHT22;43379;48.160;14.036;2022-11-11T13:47:39;10.10;99.90
57552;DHT22;43379;48.160;14.036;2022-11-11T13:50:22;10.20;99.90
57552;DHT22;43379;48.160;14.036;2022-11-11T13:53:12;10.20;99.90
57552;DHT22;43379;48.160;14.036;2022-11-11T13:55:42;10.30;99.90
57552;DHT22;43379;48.160;14.036;2022-11-11T13:58:24;10.30;99.90
57552;DHT22;43379;48.160;14.036;2022-11-11T14:01:04;10.40;99.90
57552;DHT22;43379;48.160;14.036;2022-11-11T14:24:45;10.00;99.90
57552;DHT22;43379;48.160;14.036;2022-11-11T14:29:53;9.90;99.90
57552;DHT22;43379;48.160;14.036;2022-11-11T14:32:34;9.90;99.90
57552;DHT22;43379;48.160;14.036;2022-11-11T14:37:52;9.80;99.90
57552;DHT22;43379;48.160;14.036;2022-11-11T14:40:25;9.70;99.90
57552;DHT22;43379;48.160;14.036;2022-11-11T14:42:51;9.70;99.90
57552;DHT22;43379;48.160;14.036;2022-11-11T14:47:49;9.60;99.90
57552;DHT22;43379;48.160;14.036;2022-11-11T14:53:08;9.60;99.90
57552;DHT22;43379;48.160;14.036;2022-11-11T14:55:38;9.50;99.90
57552;DHT22;43379;48.160;14.036;2022-11-11T15:00:50;9.30;99.90
57552;DHT22;43379;48.160;14.036;2022-11-11T15:03:36;9.20;99.90
57552;DHT22;43379;48.160;14.036;2022-11-11T15:06:22;9.10;99.90
57552;DHT22;43379;48.160;14.036;2022-11-11T15:14:47;9.10;99.90
57552;DHT22;43379;48.160;14.036;2022-11-11T15:17:35;9.10;99.90
57552;DHT22;43379;48.160;14.036;2022-11-11T15:20:21;9.10;99.90
57552;DHT22;43379;48.160;14.036;2022-11-11T15:25:52;9.00;99.90
57552;DHT22;43379;48.160;14.036;2022-11-11T15:37:00;8.90;99.90
57552;DHT22;43379;48.160;14.036;2022-11-11T15:39:38;8.90;99.90
57552;DHT22;43379;48.160;14.036;2022-11-11T15:42:04;9.00;99.90
57552;DHT22;43379;48.160;14.036;2022-11-11T15:44:36;9.00;99.90
57552;DHT22;43379;48.160;14.036;2022-11-11T15:47:02;8.90;99.90
57552;DHT22;43379;48.160;14.036;2022-11-11T15:49:38;8.90;99.90
57552;DHT22;43379;48.160;14.036;2022-11-11T15:52:10;8.90;99.90
57552;DHT22;43379;48.160;14.036;2022-11-11T15:54:51;8.90;99.90
57552;DHT22;43379;48.160;14.036;2022-11-11T15:59:46;8.90;99.90
57552;DHT22;43379;48.160;14.036;2022-11-11T16:02:19;9.00;99.90
57552;DHT22;43379;48.160;14.036;2022-11-11T16:04:59;9.00;99.90
57552;DHT22;43379;48.160;14.036;2022-11-11T16:07:30;9.00;99.90
57552;DHT22;43379;48.160;14.036;2022-11-11T16:10:07;8.90;99.90
57552;DHT22;43379;48.160;14.036;2022-11-11T16:12:44;8.90;99.90
57552;DHT22;43379;48.160;14.036;2022-11-11T16:15:20;8.90;99.90
57552;DHT22;43379;48.160;14.036;2022-11-11T16:17:49;8.80;99.90
57552;DHT22;43379;48.160;14.036;2022-11-11T16:20:26;8.70;99.90
57552;DHT22;43379;48.160;14.036;2022-11-11T16:22:56;8.70;99.90
57552;DHT22;43379;48.160;14.036;2022-11-11T16:25:23;8.70;99.90
57552;DHT22;43379;48.160;14.036;2022-11-11T16:27:49;8.70;99.90
57552;DHT22;43379;48.160;14.036;2022-11-11T16:30:34;8.70;99.90
57552;DHT22;43379;48.160;14.036;2022-11-11T16:33:01;8.70;99.90
57552;DHT22;43379;48.160;14.036;2022-11-11T16:35:45;8.70;99.90
57552;DHT22;43379;48.160;14.036;2022-11-11T16:38:10;8.70;99.90
57552;DHT22;43379;48.160;14.036;2022-11-11T16:40:39;8.70;99.90
57552;DHT22;43379;48.160;14.036;2022-11-11T16:45:49;8.70;99.90
57552;DHT22;43379;48.160;14.036;2022-11-11T16:51:12;8.80;99.90
57552;DHT22;43379;48.160;14.036;2022-11-11T16:53:42;8.80;99.90
57552;DHT22;43379;48.160;14.036;2022-11-11T16:56:22;8.90;99.90
57552;DHT22;43379;48.160;14.036;2022-11-11T16:59:42;8.80;99.90
57552;DHT22;43379;48.160;14.036;2022-11-11T17:01:43;8.80;99.90
57552;DHT22;43379;48.160;14.036;2022-11-11T17:04:10;8.80;99.90
57552;DHT22;43379;48.160;14.036;2022-11-11T17:06:56;8.70;99.90
57552;DHT22;43379;48.160;14.036;2022-11-11T17:09:37;8.70;99.90
57552;DHT22;43379;48.160;14.036;2022-11-11T17:12:03;8.70;99.90
57552;DHT22;43379;48.160;14.036;2022-11-11T17:14:31;8.70;99.90
57552;DHT22;43379;48.160;14.036;2022-11-11T17:16:59;8.60;99.90
57552;DHT22;43379;48.160;14.036;2022-11-11T17:19:25;8.60;99.90
57552;DHT22;43379;48.160;14.036;2022-11-11T17:21:51;8.50;99.90
57552;DHT22;43379;48.160;14.036;2022-11-11T17:24:16;8.50;99.90
57552;DHT22;43379;48.160;14.036;2022-11-11T17:26:42;8.60;99.90
57552;DHT22;43379;48.160;14.036;2022-11-11T17:29:08;8.60;99.90
57552;DHT22;43379;48.160;14.036;2022-11-11T17:31:35;8.60;99.90
57552;DHT22;43379;48.160;14.036;2022-11-11T17:34:09;8.60;99.90
57552;DHT22;43379;48.160;14.036;2022-11-11T17:36:34;8.50;99.90
57552;DHT22;43379;48.160;14.036;2022-11-11T17:39:01;8.50;99.90
57552;DHT22;43379;48.160;14.036;2022-11-11T17:41:26;8.50;99.90
57552;DHT22;43379;48.160;14.036;2022-11-11T17:43:52;8.50;99.90
57552;DHT22;43379;48.160;14.036;2022-11-11T17:46:18;8.50;99.90
57552;DHT22;43379;48.160;14.036;2022-11-11T17:48:43;8.50;99.90
57552;DHT22;43379;48.160;14.036;2022-11-11T17:51:09;8.60;99.90
57552;DHT22;43379;48.160;14.036;2022-11-11T17:53:35;8.70;99.90
57552;DHT22;43379;48.160;14.036;2022-11-11T17:56:04;8.60;99.90
57552;DHT22;43379;48.160;14.036;2022-11-11T17:58:34;8.70;99.90
57552;DHT22;43379;48.160;14.036;2022-11-11T18:01:07;8.70;99.90
57552;DHT22;43379;48.160;14.036;2022-11-11T18:03:33;8.60;99.90
57552;DHT22;43379;48.160;14.036;2022-11-11T18:05:58;8.60;99.90
57552;DHT22;43379;48.160;14.036;2022-11-11T18:08:24;8.70;99.90
57552;DHT22;43379;48.160;14.036;2022-11-11T18:10:50;8.70;99.90
57552;DHT22;43379;48.160;14.036;2022-11-11T18:13:16;8.70;99.90
57552;DHT22;43379;48.160;14.036;2022-11-11T18:15:41;8.70;99.90
57552;DHT22;43379;48.160;14.036;2022-11-11T18:18:07;8.70;99.90
57552;DHT22;43379;48.160;14.036;2022-11-11T18:20:32;8.60;99.90
57552;DHT22;43379;48.160;14.036;2022-11-11T18:22:58;8.60;99.90